createdAt,value
2018-09-18T00:01:54.560Z,5.03
2018-09-18T00:04:23.188Z,5.57
2018-09-18T00:06:51.960Z,4.97
2018-09-18T00:09:20.579Z,5.40
2018-09-18T00:11:49.170Z,4.60
2018-09-18T00:14:17.783Z,5.10
2018-09-18T00:16:46.397Z,5.07
2018-09-18T00:19:15.024Z,6.07
2018-09-18T00:21:43.636Z,5.37
2018-09-18T00:24:12.252Z,6.07
2018-09-18T00:26:40.882Z,5.50
2018-09-18T00:29:09.495Z,5.30
2018-09-18T00:31:38.099Z,5.13
2018-09-18T00:34:06.718Z,5.20
2018-09-18T00:36:35.327Z,5.37
2018-09-18T00:39:05.055Z,4.80
2018-09-18T00:41:33.677Z,5.67
2018-09-18T00:44:02.308Z,5.13
2018-09-18T00:46:30.911Z,5.33
2018-09-18T00:48:59.532Z,4.87
2018-09-18T00:51:28.135Z,5.90
2018-09-18T00:53:56.755Z,5.93
2018-09-18T00:56:25.360Z,5.73
2018-09-18T00:58:53.980Z,5.87
2018-09-18T01:01:22.594Z,5.80
2018-09-18T01:03:51.206Z,5.53
2018-09-18T01:06:19.815Z,4.90
2018-09-18T01:08:48.489Z,6.53
2018-09-18T01:11:17.099Z,6.20
2018-09-18T01:13:45.723Z,6.30
2018-09-18T01:16:14.340Z,6.30
2018-09-18T01:18:43.278Z,6.13
2018-09-18T01:21:12.294Z,5.90
2018-09-18T01:23:40.902Z,6.40
2018-09-18T01:26:09.531Z,6.60
2018-09-18T01:28:38.184Z,5.73
2018-09-18T01:31:06.797Z,6.37
2018-09-18T01:33:35.691Z,6.50
2018-09-18T01:36:04.595Z,6.87
2018-09-18T01:38:33.227Z,6.37
2018-09-18T01:41:01.903Z,6.50
2018-09-18T01:43:30.515Z,6.03
2018-09-18T01:45:59.133Z,7.37
2018-09-18T01:48:27.743Z,6.97
2018-09-18T01:50:56.376Z,6.73
2018-09-18T01:53:25.060Z,6.27
2018-09-18T01:55:53.683Z,7.37
2018-09-18T01:58:22.305Z,6.90
2018-09-18T02:00:50.927Z,5.80
2018-09-18T02:03:19.544Z,6.50
2018-09-18T02:05:48.169Z,7.03
2018-09-18T02:08:16.816Z,6.93
2018-09-18T02:10:45.640Z,6.63
2018-09-18T02:13:14.262Z,6.70
2018-09-18T02:15:42.862Z,7.17
2018-09-18T02:18:11.479Z,6.40
2018-09-18T02:20:40.104Z,7.17
2018-09-18T02:23:08.720Z,6.83
2018-09-18T02:25:37.397Z,6.90
2018-09-18T02:28:06.030Z,7.50
2018-09-18T02:30:34.637Z,6.60
2018-09-18T02:33:03.255Z,7.37
2018-09-18T02:35:31.879Z,6.30
2018-09-18T02:38:00.664Z,7.13
2018-09-18T02:40:29.287Z,6.60
2018-09-18T02:42:57.909Z,7.40
2018-09-18T02:45:26.520Z,6.70
2018-09-18T02:47:55.228Z,7.00
2018-09-18T02:50:23.908Z,7.03
2018-09-18T02:52:52.540Z,6.87
2018-09-18T02:55:21.147Z,6.73
2018-09-18T02:57:49.779Z,6.57
2018-09-18T03:00:18.391Z,7.30
2018-09-18T03:02:47.023Z,7.20
2018-09-18T03:05:15.679Z,7.70
2018-09-18T03:07:44.291Z,7.03
2018-09-18T03:10:13.067Z,7.00
2018-09-18T03:12:41.676Z,7.43
2018-09-18T03:15:10.304Z,6.37
2018-09-18T03:17:38.915Z,6.70
2018-09-18T03:20:07.529Z,7.20
2018-09-18T03:22:36.147Z,6.17
2018-09-18T03:25:04.904Z,7.20
2018-09-18T03:27:33.621Z,7.03
2018-09-18T03:30:02.147Z,7.30
2018-09-18T03:32:30.779Z,6.43
2018-09-18T03:35:00.017Z,6.83
2018-09-18T03:37:28.623Z,6.57
2018-09-18T03:39:57.224Z,6.80
2018-09-18T03:42:25.848Z,8.13
2018-09-18T03:44:54.507Z,7.30
2018-09-18T03:47:23.124Z,7.17
2018-09-18T03:49:52.726Z,6.80
2018-09-18T03:52:21.336Z,6.80
2018-09-18T03:54:49.942Z,6.90
2018-09-18T03:57:18.696Z,6.80
2018-09-18T03:59:47.325Z,7.30
2018-09-18T04:02:15.938Z,7.30
2018-09-18T04:04:44.552Z,7.40
2018-09-18T04:07:13.168Z,8.33
2018-09-18T04:09:41.787Z,7.83
2018-09-18T04:12:10.393Z,7.67
2018-09-18T04:14:39.016Z,7.50
2018-09-18T04:17:07.632Z,6.70
2018-09-18T04:19:36.286Z,6.90
2018-09-18T04:22:04.898Z,7.10
2018-09-18T04:24:33.503Z,7.30
2018-09-18T04:27:02.131Z,6.90
2018-09-18T04:29:30.713Z,7.77
2018-09-18T04:31:59.335Z,7.63
2018-09-18T04:34:27.940Z,7.83
2018-09-18T04:36:56.552Z,7.17
2018-09-18T04:39:25.284Z,7.50
2018-09-18T04:41:53.891Z,7.40
2018-09-18T04:44:22.498Z,8.13
2018-09-18T04:46:51.124Z,7.57
2018-09-18T04:49:19.747Z,7.10
2018-09-18T04:51:48.372Z,7.33
2018-09-18T04:54:16.985Z,7.87
2018-09-18T04:56:45.596Z,7.60
2018-09-18T04:59:14.210Z,8.07
2018-09-18T05:01:42.823Z,7.50
2018-09-18T05:04:11.432Z,6.80
2018-09-18T05:06:40.044Z,7.03
2018-09-18T05:09:09.792Z,7.63
2018-09-18T05:11:38.409Z,7.80
2018-09-18T05:14:07.103Z,8.00
2018-09-18T05:16:35.687Z,7.80
2018-09-18T05:19:04.285Z,7.70
2018-09-18T05:21:32.913Z,7.30
2018-09-18T05:24:01.524Z,7.50
2018-09-18T05:26:30.147Z,7.63
2018-09-18T05:28:58.780Z,8.03
2018-09-18T05:31:27.398Z,7.77
2018-09-18T05:33:56.008Z,7.57
2018-09-18T05:36:24.626Z,7.20
2018-09-18T05:39:24.017Z,7.30
2018-09-18T05:41:52.693Z,8.07
2018-09-18T05:44:21.237Z,7.77
2018-09-18T05:46:49.847Z,8.00
2018-09-18T05:49:18.473Z,8.50
2018-09-18T05:51:47.831Z,8.07
2018-09-18T05:54:16.457Z,7.23
2018-09-18T05:56:45.051Z,8.07
2018-09-18T05:59:13.659Z,7.20
2018-09-18T06:01:43.392Z,7.37
2018-09-18T06:04:11.984Z,8.00
2018-09-18T06:06:40.844Z,8.17
2018-09-18T06:09:10.734Z,8.37
2018-09-18T06:11:40.163Z,8.63
2018-09-18T06:14:08.952Z,7.47
2018-09-18T06:16:37.568Z,8.40
2018-09-18T06:19:06.236Z,6.73
2018-09-18T06:21:34.787Z,8.53
2018-09-18T06:24:03.404Z,7.23
2018-09-18T06:26:32.020Z,6.77
2018-09-18T06:29:00.624Z,7.50
2018-09-18T06:31:29.260Z,6.80
2018-09-18T06:33:57.839Z,7.70
2018-09-18T06:36:26.439Z,8.33
2018-09-18T06:38:55.054Z,7.00
2018-09-18T06:41:23.703Z,7.30
2018-09-18T06:43:52.472Z,7.20
2018-09-18T06:46:21.096Z,7.37
2018-09-18T06:48:49.714Z,6.63
2018-09-18T06:51:18.370Z,6.83
2018-09-18T06:53:46.919Z,7.30
2018-09-18T06:56:15.518Z,6.63
2018-09-18T06:58:44.162Z,6.33
2018-09-18T07:01:12.743Z,6.50
2018-09-18T07:03:41.356Z,6.23
2018-09-18T07:06:09.973Z,6.07
2018-09-18T07:08:38.631Z,5.83
2018-09-18T07:11:07.372Z,6.70
2018-09-18T07:13:36.405Z,6.67
2018-09-18T07:16:05.040Z,5.90
2018-09-18T07:18:33.676Z,6.70
2018-09-18T07:21:02.315Z,5.50
2018-09-18T07:23:30.940Z,5.70
2018-09-18T07:25:59.571Z,6.10
2018-09-18T07:28:28.199Z,6.10
2018-09-18T07:30:56.805Z,5.73
2018-09-18T07:33:25.416Z,6.30
2018-09-18T07:35:54.088Z,5.60
2018-09-18T07:38:22.699Z,5.50
2018-09-18T07:40:51.320Z,5.10
2018-09-18T07:43:19.932Z,4.93
2018-09-18T07:45:48.540Z,4.80
2018-09-18T07:48:17.153Z,5.63
2018-09-18T07:50:45.779Z,5.00
2018-09-18T07:53:14.392Z,5.47
2018-09-18T07:55:43.028Z,5.30
2018-09-18T07:58:11.657Z,4.93
2018-09-18T08:00:40.271Z,4.90
2018-09-18T08:03:08.890Z,5.10
2018-09-18T08:05:37.492Z,4.47
2018-09-18T08:08:06.100Z,4.40
2018-09-18T08:10:34.711Z,5.03
2018-09-18T08:13:03.336Z,4.60
2018-09-18T08:15:31.940Z,4.20
2018-09-18T08:18:00.554Z,4.10
2018-09-18T08:20:29.143Z,3.83
2018-09-18T08:22:57.757Z,4.20
2018-09-18T08:25:26.370Z,4.10
2018-09-18T08:27:54.955Z,4.50
2018-09-18T08:30:23.564Z,4.10
2018-09-18T08:32:52.198Z,4.03
2018-09-18T08:35:20.796Z,4.70
2018-09-18T08:37:49.430Z,4.70
2018-09-18T08:41:21.096Z,3.87
2018-09-18T08:43:49.726Z,4.40
2018-09-18T08:46:18.320Z,5.00
2018-09-18T08:48:52.412Z,4.90
2018-09-18T08:51:20.983Z,4.47
2018-09-18T08:53:49.584Z,4.13
2018-09-18T08:56:18.180Z,4.57
2018-09-18T08:58:47.119Z,4.40
2018-09-18T09:01:15.756Z,4.37
2018-09-18T09:03:44.323Z,4.30
2018-09-18T09:06:13.066Z,4.17
2018-09-18T09:08:41.776Z,3.77
2018-09-18T09:11:10.255Z,4.10
2018-09-18T09:13:38.876Z,3.90
2018-09-18T09:16:07.499Z,3.80
2018-09-18T09:18:36.201Z,3.80
2018-09-18T09:21:04.805Z,3.87
2018-09-18T09:23:33.396Z,3.83
2018-09-18T09:26:01.991Z,4.50
2018-09-18T09:28:30.664Z,4.30
2018-09-18T09:30:59.299Z,3.87
2018-09-18T09:33:27.931Z,4.23
2018-09-18T09:35:56.530Z,4.30
2018-09-18T09:38:25.138Z,4.07
2018-09-18T09:40:53.752Z,3.73
2018-09-18T09:43:22.387Z,3.33
2018-09-18T09:45:51.012Z,4.37
2018-09-18T09:48:19.619Z,3.63
2018-09-18T09:53:23.231Z,3.57
2018-09-18T09:55:51.852Z,4.23
2018-09-18T09:58:20.464Z,4.10
2018-09-18T10:00:54.508Z,4.73
2018-09-18T10:03:23.112Z,4.17
2018-09-18T10:05:51.718Z,4.20
2018-09-18T10:08:20.315Z,4.53
2018-09-18T10:10:49.094Z,4.80
2018-09-18T10:13:17.533Z,4.47
2018-09-18T10:15:46.149Z,4.80
2018-09-18T10:18:14.792Z,5.03
2018-09-18T10:20:43.392Z,4.65
2018-09-18T10:23:11.995Z,4.60
2018-09-18T10:25:40.629Z,5.12
2018-09-18T10:28:09.216Z,4.78
2018-09-18T10:30:37.915Z,4.37
2018-09-18T10:33:06.547Z,5.10
2018-09-18T10:35:35.228Z,4.53
2018-09-18T10:38:03.896Z,4.10
2018-09-18T10:40:32.509Z,4.30
2018-09-18T10:43:01.249Z,5.30
2018-09-18T10:45:29.826Z,5.58
2018-09-18T10:47:58.433Z,4.70
2018-09-18T10:50:27.130Z,5.47
2018-09-18T10:52:55.788Z,4.70
2018-09-18T10:55:24.556Z,5.00
2018-09-18T10:57:53.116Z,4.70
2018-09-18T11:00:21.743Z,5.58
2018-09-18T11:02:50.375Z,5.05
2018-09-18T11:05:18.999Z,5.80
2018-09-18T11:07:47.718Z,5.30
2018-09-18T11:10:17.474Z,5.78
2018-09-18T11:12:46.035Z,5.22
2018-09-18T11:15:14.670Z,5.30
2018-09-18T11:17:43.307Z,7.15
2018-09-18T11:20:11.931Z,5.78
2018-09-18T11:22:40.623Z,6.08
2018-09-18T11:25:09.265Z,5.92
2018-09-18T11:27:37.947Z,5.92
2018-09-18T11:30:06.570Z,6.53
2018-09-18T11:32:35.664Z,5.05
2018-09-18T11:35:04.282Z,5.90
2018-09-18T11:37:32.911Z,6.60
2018-09-18T11:40:01.524Z,5.95
2018-09-18T11:42:30.138Z,5.85
2018-09-18T11:44:58.807Z,5.83
2018-09-18T11:47:27.415Z,4.90
2018-09-18T11:49:56.049Z,5.55
2018-09-18T11:52:24.664Z,5.70
2018-09-18T11:54:53.300Z,5.72
2018-09-18T11:57:22.241Z,5.12
2018-09-18T11:59:50.931Z,5.25
2018-09-18T12:02:19.675Z,5.85
2018-09-18T12:04:48.581Z,5.40
2018-09-18T12:07:17.703Z,4.78
2018-09-18T12:09:46.541Z,6.10
2018-09-18T12:12:15.129Z,4.92
2018-09-18T12:14:43.768Z,5.35
2018-09-18T12:17:12.367Z,5.20
2018-09-18T12:19:40.998Z,5.15
2018-09-18T12:22:09.622Z,5.20
2018-09-18T12:24:38.211Z,5.20
2018-09-18T12:27:06.804Z,5.72
2018-09-18T12:29:35.432Z,5.55
2018-09-18T12:32:04.048Z,5.72
2018-09-18T12:34:32.677Z,5.95
2018-09-18T12:37:01.281Z,6.05
2018-09-18T12:39:29.900Z,5.40
2018-09-18T12:41:58.603Z,5.95
2018-09-18T12:44:27.128Z,7.08
2018-09-18T12:46:55.755Z,6.28
2018-09-18T12:49:24.486Z,5.35
2018-09-18T12:51:53.068Z,5.25
2018-09-18T12:54:21.768Z,4.78
2018-09-18T12:56:50.629Z,5.37
2018-09-18T12:59:19.850Z,5.35
2018-09-18T13:01:49.135Z,5.53
2018-09-18T13:04:18.588Z,4.60
2018-09-18T13:06:47.881Z,5.30
2018-09-18T13:09:16.739Z,5.10
2018-09-18T13:11:45.355Z,5.78
2018-09-18T13:14:14.198Z,4.70
2018-09-18T13:16:42.611Z,5.15
2018-09-18T13:19:11.275Z,5.37
2018-09-18T13:21:39.909Z,5.17
2018-09-18T13:24:08.484Z,5.00
2018-09-18T13:26:37.115Z,4.87
2018-09-18T13:29:05.789Z,4.10
2018-09-18T13:31:34.390Z,5.00
2018-09-18T13:34:03.028Z,5.08
2018-09-18T13:36:31.781Z,4.92
2018-09-18T13:39:00.358Z,4.28
2018-09-18T13:41:28.976Z,4.72
2018-09-18T13:43:57.991Z,5.15
2018-09-18T13:46:26.669Z,4.25
2018-09-18T13:48:55.223Z,3.55
2018-09-18T13:51:23.895Z,3.10
2018-09-18T13:53:52.500Z,3.80
2018-09-18T13:56:21.931Z,3.00
2018-09-18T13:58:51.504Z,3.35
2018-09-18T14:01:22.560Z,3.60
2018-09-18T14:03:51.052Z,3.75
2018-09-18T14:06:19.806Z,4.30
2018-09-18T14:08:48.663Z,4.03
2018-09-18T14:11:17.425Z,4.03
2018-09-18T14:13:47.175Z,4.15
2018-09-18T14:16:15.913Z,3.50
2018-09-18T14:18:44.499Z,3.55
2018-09-18T14:21:13.121Z,3.98
2018-09-18T14:23:41.731Z,4.12
2018-09-18T14:26:10.400Z,3.62
2018-09-18T14:28:38.956Z,3.92
2018-09-18T14:31:07.559Z,4.53
2018-09-18T14:33:36.261Z,3.80
2018-09-18T14:36:04.878Z,3.37
2018-09-18T14:38:33.517Z,4.08
2018-09-18T14:41:02.128Z,4.05
2018-09-18T14:43:30.780Z,4.10
2018-09-18T14:45:59.415Z,3.77
2018-09-18T14:48:28.035Z,2.90
2018-09-18T14:50:56.708Z,3.90
2018-09-18T14:53:25.325Z,3.98
2018-09-18T14:55:53.988Z,3.50
2018-09-18T14:58:22.761Z,3.45
2018-09-18T15:00:51.640Z,3.77
2018-09-18T15:03:20.651Z,3.95
2018-09-18T15:05:49.286Z,4.50
2018-09-18T15:08:18.795Z,3.90
2018-09-18T15:10:47.856Z,4.33
2018-09-18T15:13:16.922Z,3.10
2018-09-18T15:15:45.572Z,4.40
2018-09-18T15:18:14.164Z,4.05
2018-09-18T15:20:42.771Z,4.10
2018-09-18T15:23:11.368Z,3.92
2018-09-18T15:25:39.995Z,3.90
2018-09-18T15:28:08.608Z,3.77
2018-09-18T15:30:37.236Z,3.72
2018-09-18T15:33:05.844Z,3.30
2018-09-18T15:35:34.471Z,3.67
2018-09-18T15:38:03.075Z,3.40
2018-09-18T15:40:31.696Z,3.42
2018-09-18T15:43:00.331Z,3.58
2018-09-18T15:45:28.939Z,2.77
2018-09-18T15:47:57.597Z,2.75
2018-09-18T15:50:26.207Z,2.62
2018-09-18T15:52:54.828Z,3.08
2018-09-18T15:55:23.522Z,3.22
2018-09-18T15:57:52.056Z,2.60
2018-09-18T16:00:20.664Z,3.22
2018-09-18T16:02:49.321Z,4.20
2018-09-18T16:05:18.103Z,2.72
2018-09-18T16:07:46.701Z,3.08
2018-09-18T16:10:15.403Z,3.33
2018-09-18T16:12:44.011Z,3.10
2018-09-18T16:15:12.671Z,3.77
2018-09-18T16:17:41.292Z,2.67
2018-09-18T16:20:10.167Z,3.20
2018-09-18T16:22:38.821Z,3.13
2018-09-18T16:25:07.380Z,2.97
2018-09-18T16:27:35.992Z,3.33
2018-09-18T16:30:04.688Z,3.87
2018-09-18T16:32:33.316Z,3.40
2018-09-18T16:35:01.928Z,3.40
2018-09-18T16:37:30.584Z,3.80
2018-09-18T16:39:59.157Z,2.70
2018-09-18T16:42:27.846Z,3.57
2018-09-18T16:44:56.425Z,3.40
2018-09-18T16:47:25.037Z,3.27
2018-09-18T16:49:53.647Z,4.13
2018-09-18T16:52:22.317Z,3.90
2018-09-18T16:54:50.991Z,3.50
2018-09-18T16:57:19.569Z,3.50
2018-09-18T16:59:48.182Z,3.90
2018-09-18T17:02:16.931Z,3.40
2018-09-18T17:04:45.539Z,2.80
2018-09-18T17:07:14.242Z,3.20
2018-09-18T17:09:42.924Z,3.20
2018-09-18T17:12:11.542Z,2.70
2018-09-18T17:14:40.146Z,3.03
2018-09-18T17:17:08.759Z,3.00
2018-09-18T17:19:37.419Z,2.97
2018-09-18T17:22:06.029Z,3.20
2018-09-18T17:24:34.692Z,2.90
2018-09-18T17:27:03.359Z,3.00
2018-09-18T17:29:31.918Z,3.33
2018-09-18T17:32:00.509Z,3.40
2018-09-18T17:34:29.175Z,3.53
2018-09-18T17:36:57.725Z,4.07
2018-09-18T17:39:26.340Z,3.80
2018-09-18T17:41:54.939Z,3.83
2018-09-18T17:44:23.550Z,3.20
2018-09-18T17:46:52.141Z,3.83
2018-09-18T17:49:20.749Z,3.53
2018-09-18T17:51:49.411Z,3.47
2018-09-18T17:54:18.012Z,3.00
2018-09-18T17:56:46.621Z,3.60
2018-09-18T17:59:15.237Z,2.93
2018-09-18T18:01:43.839Z,3.70
2018-09-18T18:04:12.509Z,3.90
2018-09-18T18:06:41.106Z,3.00
2018-09-18T18:09:10.396Z,3.60
2018-09-18T18:11:39.303Z,3.33
2018-09-18T18:14:07.827Z,4.00
2018-09-18T18:16:36.423Z,4.13
2018-09-18T18:19:05.107Z,4.60
2018-09-18T18:21:33.702Z,4.20
2018-09-18T18:24:02.331Z,4.47
2018-09-18T18:26:31.299Z,4.93
2018-09-18T18:28:59.848Z,4.50
2018-09-18T18:31:28.523Z,4.33
2018-09-18T18:33:57.199Z,5.10
2018-09-18T18:36:25.889Z,5.87
2018-09-18T18:38:55.401Z,5.00
2018-09-18T18:41:24.045Z,4.40
2018-09-18T18:43:52.693Z,5.47
2018-09-18T18:46:21.309Z,4.63
2018-09-18T18:48:49.926Z,4.93
2018-09-18T18:51:20.555Z,4.60
2018-09-18T18:53:49.112Z,4.50
2018-09-18T18:56:18.282Z,4.40
2018-09-18T18:58:46.926Z,5.00
2018-09-18T19:01:15.527Z,4.03
2018-09-18T19:03:44.134Z,4.57
2018-09-18T19:06:12.800Z,5.73
2018-09-18T19:08:41.359Z,5.70
2018-09-18T19:11:09.996Z,4.10
2018-09-18T19:13:38.611Z,4.60
2018-09-18T19:16:07.249Z,5.07
2018-09-18T19:18:36.167Z,5.43
2018-09-18T19:21:04.732Z,4.90
2018-09-18T19:23:33.467Z,4.70
2018-09-18T19:26:02.177Z,4.60
2018-09-18T19:28:30.726Z,4.90
2018-09-18T19:30:59.381Z,4.60
2018-09-18T19:33:29.812Z,4.43
2018-09-18T19:35:58.379Z,5.53
2018-09-18T19:38:26.989Z,4.60
2018-09-18T19:40:55.602Z,5.10
2018-09-18T19:43:24.217Z,4.60
2018-09-18T19:45:53.503Z,5.10
2018-09-18T19:48:22.476Z,4.50
2018-09-18T19:50:51.015Z,4.40
2018-09-18T19:53:19.623Z,4.33
2018-09-18T19:55:48.244Z,5.17
2018-09-18T19:58:16.861Z,4.80
2018-09-18T20:00:45.467Z,5.00
2018-09-18T20:03:14.131Z,4.37
2018-09-18T20:05:42.684Z,4.90
2018-09-18T20:08:11.365Z,4.97
2018-09-18T20:10:40.064Z,4.77
2018-09-18T20:13:08.774Z,4.10
2018-09-18T20:15:37.393Z,4.40
2018-09-18T20:18:06.076Z,4.50
2018-09-18T20:20:34.685Z,5.17
2018-09-18T20:23:03.299Z,3.80
2018-09-18T20:25:31.965Z,4.60
2018-09-18T20:28:00.572Z,5.23
2018-09-18T20:30:29.356Z,4.57
2018-09-18T20:32:57.974Z,4.30
2018-09-18T20:35:26.615Z,3.93
2018-09-18T20:37:55.272Z,4.73
2018-09-18T20:40:23.932Z,4.47
2018-09-18T20:42:52.538Z,5.37
2018-09-18T20:45:21.152Z,6.03
2018-09-18T20:47:49.776Z,5.60
2018-09-18T20:50:22.245Z,5.47
2018-09-18T20:52:52.322Z,4.77
2018-09-18T20:55:20.947Z,4.50
2018-09-18T20:57:49.571Z,4.20
2018-09-18T21:00:18.610Z,5.20
2018-09-18T21:02:47.254Z,4.90
2018-09-18T21:05:15.869Z,4.90
2018-09-18T21:07:44.496Z,5.23
2018-09-18T21:10:13.138Z,4.47
2018-09-18T21:12:41.744Z,5.33
2018-09-18T21:15:10.381Z,5.57
2018-09-18T21:17:39.026Z,4.87
2018-09-18T21:20:07.798Z,4.50
2018-09-18T21:22:36.412Z,5.50
2018-09-18T21:25:29.771Z,4.83
2018-09-18T21:27:58.401Z,5.37
2018-09-18T21:30:27.014Z,5.00
2018-09-18T21:32:55.637Z,5.00
2018-09-18T21:35:24.260Z,5.20
2018-09-18T21:37:52.869Z,5.00
2018-09-18T21:40:21.487Z,5.13
2018-09-18T21:42:50.107Z,4.80
2018-09-18T21:45:18.719Z,5.60
2018-09-18T21:47:47.332Z,5.90
2018-09-18T21:50:15.956Z,5.80
2018-09-18T21:52:44.615Z,5.37
2018-09-18T21:55:13.188Z,6.50
2018-09-18T21:57:41.796Z,5.93
2018-09-18T22:00:10.413Z,5.97
2018-09-18T22:02:39.015Z,6.77
2018-09-18T22:05:07.644Z,6.87
2018-09-18T22:07:36.243Z,6.43
2018-09-18T22:10:04.869Z,6.37
2018-09-18T22:12:33.492Z,6.80
2018-09-18T22:15:03.048Z,6.60
2018-09-18T22:17:42.733Z,6.80
2018-09-18T22:20:16.003Z,6.43
2018-09-18T22:22:49.308Z,6.57
2018-09-18T22:25:18.307Z,6.20
2018-09-18T22:27:46.919Z,6.20
2018-09-18T22:30:15.720Z,5.90
2018-09-18T22:32:45.367Z,6.60
2018-09-18T22:35:14.031Z,6.10
2018-09-18T22:37:42.644Z,5.60
2018-09-18T22:40:16.404Z,5.60
2018-09-18T22:42:44.966Z,5.87
2018-09-18T22:45:27.019Z,6.33
2018-09-18T22:47:57.423Z,6.43
2018-09-18T22:50:26.100Z,6.07
2018-09-18T22:52:57.865Z,5.90
2018-09-18T22:55:26.554Z,6.10
2018-09-18T22:57:55.167Z,6.80
2018-09-18T23:00:26.486Z,6.13
2018-09-18T23:02:55.396Z,6.27
2018-09-18T23:05:23.997Z,6.20
2018-09-18T23:07:52.614Z,7.13
2018-09-18T23:10:21.224Z,6.13
2018-09-18T23:12:49.833Z,5.60
2018-09-18T23:15:18.467Z,5.97
2018-09-18T23:17:48.198Z,5.70
2018-09-18T23:20:17.917Z,6.40
2018-09-18T23:22:46.563Z,6.83
2018-09-18T23:25:15.164Z,5.90
2018-09-18T23:27:43.789Z,7.37
2018-09-18T23:30:12.387Z,6.97
2018-09-18T23:32:41.011Z,7.07
2018-09-18T23:35:09.615Z,6.50
2018-09-18T23:37:38.237Z,6.03
2018-09-18T23:40:06.863Z,7.37
2018-09-18T23:42:35.474Z,6.90
2018-09-18T23:45:05.218Z,6.90
2018-09-18T23:47:33.831Z,7.00
2018-09-18T23:50:02.437Z,6.97
2018-09-18T23:52:31.050Z,5.83
2018-09-18T23:54:59.660Z,5.73
2018-09-18T23:57:28.271Z,6.00
2018-09-18T23:59:56.890Z,6.17
